Time;durP1;ratioP1;P1;durP2;ratioP2;P2;SDS_P1;SDS_P2;PMS_P1;PMS_P2;Temp;Humidity;BMP_temperature;BMP_pressure;BME280_temperature;BME280_humidity;BME280_pressure;Samples;Min_cycle;Max_cycle;Signal;HPM_P1;HPM_P2
2021/01/27 00:01:46;;;;;;;;;;;21.00;37.00;;;;;;467820;253;1152;-67
2021/01/27 00:03:48;;;;;;;;;;;21.10;37.00;;;;;;467783;254;1000;-67
2021/01/27 00:05:49;;;;;;;;;;;21.00;36.80;;;;;;467722;255;2316;-68
2021/01/27 00:07:50;;;;;;;;;;;21.00;36.90;;;;;;467793;253;1062;-68
2021/01/27 00:09:51;;;;;;;;;;;21.00;37.00;;;;;;467783;253;1325;-68
2021/01/27 00:11:52;;;;;;;;;;;21.00;37.10;;;;;;467776;253;1136;-67
2021/01/27 00:13:54;;;;;;;;;;;21.00;37.10;;;;;;467823;253;2218;-67
2021/01/27 00:15:55;;;;;;;;;;;21.00;37.20;;;;;;467757;251;1231;-68
2021/01/27 00:17:56;;;;;;;;;;;21.00;37.20;;;;;;467799;253;1139;-67
2021/01/27 00:19:58;;;;;;;;;;;21.00;37.20;;;;;;467772;253;948;-67
2021/01/27 00:21:59;;;;;;;;;;;21.00;37.10;;;;;;467811;254;1281;-68
2021/01/27 00:24:00;;;;;;;;;;;21.10;37.20;;;;;;467845;253;992;-67
2021/01/27 00:26:01;;;;;;;;;;;21.10;37.20;;;;;;467810;254;1201;-68
2021/01/27 00:28:03;;;;;;;;;;;21.10;37.20;;;;;;467767;253;1181;-67
2021/01/27 00:30:04;;;;;;;;;;;21.10;37.30;;;;;;467827;253;1134;-67
2021/01/27 00:32:05;;;;;;;;;;;21.10;37.20;;;;;;467800;254;1057;-67
2021/01/27 00:34:06;;;;;;;;;;;21.10;37.20;;;;;;467804;254;2201;-67
2021/01/27 00:36:08;;;;;;;;;;;21.10;37.30;;;;;;467788;253;987;-67
2021/01/27 00:38:09;;;;;;;;;;;21.10;37.20;;;;;;467920;254;1199;-68
2021/01/27 00:40:10;;;;;;;;;;;21.10;37.30;;;;;;467853;253;1042;-68
2021/01/27 00:42:12;;;;;;;;;;;21.10;37.30;;;;;;467857;250;1252;-67
2021/01/27 00:44:13;;;;;;;;;;;21.10;37.10;;;;;;467804;254;1198;-67
2021/01/27 00:46:14;;;;;;;;;;;21.10;36.50;;;;;;467779;252;1108;-68
2021/01/27 00:48:15;;;;;;;;;;;21.10;36.10;;;;;;467827;254;1168;-67
2021/01/27 00:50:17;;;;;;;;;;;21.10;35.70;;;;;;467826;254;1187;-67
2021/01/27 00:52:18;;;;;;;;;;;21.10;35.20;;;;;;467833;254;1171;-67
2021/01/27 00:54:19;;;;;;;;;;;21.10;34.90;;;;;;467875;253;2200;-67
2021/01/27 00:56:21;;;;;;;;;;;21.10;34.60;;;;;;467816;252;1161;-67
2021/01/27 00:58:22;;;;;;;;;;;21.10;34.30;;;;;;467863;253;2190;-67
2021/01/27 01:00:23;;;;;;;;;;;21.10;33.90;;;;;;467832;254;1270;-67
2021/01/27 01:02:24;;;;;;;;;;;21.10;33.50;;;;;;467868;254;1197;-68
2021/01/27 01:04:26;;;;;;;;;;;21.10;33.40;;;;;;467876;253;1163;-67
2021/01/27 01:06:27;;;;;;;;;;;21.10;33.20;;;;;;467854;252;1224;-67
2021/01/27 01:08:28;;;;;;;;;;;21.10;32.90;;;;;;467821;253;997;-67
2021/01/27 01:10:29;;;;;;;;;;;21.10;32.70;;;;;;467855;254;981;-67
2021/01/27 01:12:31;;;;;;;;;;;21.10;32.50;;;;;;467881;253;1198;-67
2021/01/27 01:14:32;;;;;;;;;;;21.10;32.30;;;;;;467945;253;2177;-67
2021/01/27 01:16:33;;;;;;;;;;;21.10;32.10;;;;;;467850;254;1460;-67
2021/01/27 01:18:34;;;;;;;;;;;21.10;31.90;;;;;;467857;253;1015;-67
2021/01/27 01:20:36;;;;;;;;;;;21.10;31.60;;;;;;467845;254;991;-68
2021/01/27 01:22:37;;;;;;;;;;;21.10;32.00;;;;;;467872;253;1192;-67
2021/01/27 01:24:38;;;;;;;;;;;21.10;33.10;;;;;;467862;253;1050;-67
2021/01/27 01:26:40;;;;;;;;;;;21.10;34.10;;;;;;467847;254;1070;-67
2021/01/27 01:28:41;;;;;;;;;;;21.10;34.10;;;;;;467918;253;1236;-67
2021/01/27 01:30:42;;;;;;;;;;;21.10;33.50;;;;;;467862;254;1082;-67
2021/01/27 01:32:43;;;;;;;;;;;21.10;33.10;;;;;;467841;253;1017;-67
2021/01/27 01:34:45;;;;;;;;;;;21.10;32.70;;;;;;467849;254;2196;-67
2021/01/27 01:36:46;;;;;;;;;;;21.10;32.40;;;;;;467799;253;1139;-67
2021/01/27 01:38:47;;;;;;;;;;;21.10;32.20;;;;;;467827;254;1007;-68
2021/01/27 01:40:49;;;;;;;;;;;21.00;32.10;;;;;;467857;253;1191;-67
2021/01/27 01:42:50;;;;;;;;;;;21.10;33.40;;;;;;467839;253;977;-67
2021/01/27 01:44:51;;;;;;;;;;;21.10;34.10;;;;;;467834;253;1336;-67
2021/01/27 01:46:52;;;;;;;;;;;21.10;33.70;;;;;;467766;253;977;-67
2021/01/27 01:48:54;;;;;;;;;;;21.10;33.20;;;;;;467882;253;1052;-68
2021/01/27 01:50:55;;;;;;;;;;;21.10;32.80;;;;;;467746;254;1302;-67
2021/01/27 01:52:56;;;;;;;;;;;21.00;32.40;;;;;;467851;253;1209;-67
2021/01/27 01:54:58;;;;;;;;;;;21.10;32.10;;;;;;467808;253;2148;-67
2021/01/27 01:56:59;;;;;;;;;;;21.00;31.80;;;;;;467818;254;1198;-68
2021/01/27 01:59:00;;;;;;;;;;;21.10;31.60;;;;;;467787;253;1426;-67
2021/01/27 02:01:01;;;;;;;;;;;21.00;31.30;;;;;;467780;253;1108;-67
2021/01/27 02:03:03;;;;;;;;;;;21.00;31.10;;;;;;467801;253;1155;-68
2021/01/27 02:05:04;;;;;;;;;;;21.00;31.00;;;;;;467840;253;1097;-67
2021/01/27 02:07:05;;;;;;;;;;;21.00;30.70;;;;;;467816;253;1319;-67
2021/01/27 02:09:07;;;;;;;;;;;21.00;30.50;;;;;;467852;253;1172;-67
2021/01/27 02:11:08;;;;;;;;;;;21.00;30.40;;;;;;467790;253;1227;-68
2021/01/27 02:13:09;;;;;;;;;;;20.90;30.10;;;;;;467847;253;1232;-67
2021/01/27 02:15:11;;;;;;;;;;;20.90;30.00;;;;;;467790;254;2196;-68
2021/01/27 02:17:12;;;;;;;;;;;20.90;29.90;;;;;;467827;253;999;-67
2021/01/27 02:19:13;;;;;;;;;;;21.00;29.90;;;;;;467787;251;1239;-67
2021/01/27 02:21:14;;;;;;;;;;;21.00;29.80;;;;;;467898;250;1190;-67
2021/01/27 02:23:16;;;;;;;;;;;21.00;29.60;;;;;;467740;254;1236;-67
2021/01/27 02:25:17;;;;;;;;;;;21.00;29.60;;;;;;467828;253;1116;-68
2021/01/27 02:27:18;;;;;;;;;;;21.00;29.40;;;;;;467821;253;1017;-67
2021/01/27 02:29:20;;;;;;;;;;;21.00;29.30;;;;;;467855;253;1204;-67
2021/01/27 02:31:21;;;;;;;;;;;21.00;29.30;;;;;;467776;252;1694;-67
2021/01/27 02:33:22;;;;;;;;;;;21.00;29.20;;;;;;467895;253;1064;-67
2021/01/27 02:35:23;;;;;;;;;;;21.00;29.20;;;;;;467778;253;2196;-67
2021/01/27 02:37:25;;;;;;;;;;;20.90;29.00;;;;;;467792;253;1159;-68
2021/01/27 02:39:26;;;;;;;;;;;21.00;29.00;;;;;;467780;253;971;-68
2021/01/27 02:41:27;;;;;;;;;;;21.00;28.90;;;;;;467724;254;1144;-67
2021/01/27 02:43:28;;;;;;;;;;;21.00;28.80;;;;;;467832;253;1200;-67
2021/01/27 02:45:30;;;;;;;;;;;21.00;28.80;;;;;;467842;252;1702;-67
2021/01/27 02:47:31;;;;;;;;;;;21.00;28.70;;;;;;467761;253;1094;-68
2021/01/27 02:49:32;;;;;;;;;;;21.00;28.70;;;;;;467860;253;991;-67
2021/01/27 02:51:33;;;;;;;;;;;21.00;28.60;;;;;;467840;254;980;-67
2021/01/27 02:53:35;;;;;;;;;;;21.00;28.60;;;;;;467849;254;1201;-68
2021/01/27 02:55:36;;;;;;;;;;;21.00;28.50;;;;;;467807;254;2200;-67
2021/01/27 02:57:38;;;;;;;;;;;21.00;28.40;;;;;;467807;254;1195;-67
2021/01/27 02:59:39;;;;;;;;;;;21.00;28.40;;;;;;467854;253;1235;-67
2021/01/27 03:01:40;;;;;;;;;;;21.00;28.30;;;;;;467761;253;1391;-67
2021/01/27 03:03:42;;;;;;;;;;;21.00;28.30;;;;;;467844;253;1038;-67
2021/01/27 03:05:43;;;;;;;;;;;21.00;28.20;;;;;;467787;254;1008;-68
2021/01/27 03:07:44;;;;;;;;;;;21.00;28.20;;;;;;467776;253;1310;-67
2021/01/27 03:09:45;;;;;;;;;;;21.00;28.10;;;;;;467760;254;976;-67
2021/01/27 03:11:47;;;;;;;;;;;21.00;28.00;;;;;;467726;251;1222;-67
2021/01/27 03:13:48;;;;;;;;;;;21.00;28.00;;;;;;467630;253;974;-69
2021/01/27 03:15:49;;;;;;;;;;;21.00;28.00;;;;;;467634;251;2200;-67
2021/01/27 03:17:51;;;;;;;;;;;21.00;27.90;;;;;;467690;251;1248;-68
2021/01/27 03:19:52;;;;;;;;;;;21.10;27.90;;;;;;467790;253;1288;-67
2021/01/27 03:21:53;;;;;;;;;;;21.00;27.80;;;;;;467834;253;1003;-67
2021/01/27 03:23:54;;;;;;;;;;;21.00;27.70;;;;;;467831;253;1115;-67
2021/01/27 03:25:56;;;;;;;;;;;21.00;27.70;;;;;;467818;254;1396;-67
2021/01/27 03:27:57;;;;;;;;;;;21.00;27.70;;;;;;467798;252;1298;-67
2021/01/27 03:29:59;;;;;;;;;;;21.00;27.60;;;;;;467780;254;1156;-68
2021/01/27 03:32:00;;;;;;;;;;;21.00;27.60;;;;;;467805;253;1236;-67
2021/01/27 03:34:01;;;;;;;;;;;21.10;27.50;;;;;;467753;254;1159;-68
2021/01/27 03:36:03;;;;;;;;;;;21.10;27.50;;;;;;467705;254;2117;-67
2021/01/27 03:38:04;;;;;;;;;;;21.10;27.50;;;;;;467746;252;1244;-68
2021/01/27 03:40:05;;;;;;;;;;;21.00;27.40;;;;;;467709;253;1032;-67
2021/01/27 03:42:06;;;;;;;;;;;21.00;27.40;;;;;;467715;254;1411;-67
2021/01/27 03:44:08;;;;;;;;;;;21.00;27.40;;;;;;467743;253;1024;-68
2021/01/27 03:46:09;;;;;;;;;;;21.00;27.30;;;;;;467811;253;1221;-67
2021/01/27 03:48:10;;;;;;;;;;;21.00;27.30;;;;;;467838;254;1186;-68
2021/01/27 03:50:11;;;;;;;;;;;21.00;27.30;;;;;;467781;253;1061;-67
2021/01/27 03:52:13;;;;;;;;;;;21.00;27.30;;;;;;467785;253;1095;-67
2021/01/27 03:54:14;;;;;;;;;;;21.00;27.20;;;;;;467811;253;993;-67
2021/01/27 03:56:15;;;;;;;;;;;21.00;27.10;;;;;;467756;254;2193;-68
2021/01/27 03:58:17;;;;;;;;;;;21.00;27.10;;;;;;467749;254;968;-67
2021/01/27 04:00:18;;;;;;;;;;;21.00;27.10;;;;;;467851;253;1317;-68
2021/01/27 04:02:20;;;;;;;;;;;21.00;27.10;;;;;;467807;253;1099;-67
2021/01/27 04:04:20;;;;;;;;;;;21.00;27.00;;;;;;467783;254;2278;-68
2021/01/27 04:06:22;;;;;;;;;;;21.00;27.00;;;;;;467865;251;1153;-67
2021/01/27 04:08:23;;;;;;;;;;;20.90;27.00;;;;;;467805;253;1179;-67
2021/01/27 04:10:24;;;;;;;;;;;20.90;26.90;;;;;;467824;253;1090;-67
2021/01/27 04:12:25;;;;;;;;;;;20.90;26.90;;;;;;467791;253;1056;-68
2021/01/27 04:14:27;;;;;;;;;;;20.90;26.90;;;;;;467809;253;2204;-67
2021/01/27 04:16:29;;;;;;;;;;;20.90;26.80;;;;;;467777;252;1186;-67
2021/01/27 04:18:29;;;;;;;;;;;20.90;26.80;;;;;;467835;255;2242;-67
2021/01/27 04:20:31;;;;;;;;;;;20.90;26.80;;;;;;467859;253;993;-67
2021/01/27 04:22:32;;;;;;;;;;;20.90;26.80;;;;;;467915;253;1314;-68
2021/01/27 04:24:33;;;;;;;;;;;20.90;26.70;;;;;;467814;253;976;-67
2021/01/27 04:26:34;;;;;;;;;;;20.90;26.70;;;;;;467737;254;1094;-67
2021/01/27 04:28:36;;;;;;;;;;;20.90;26.70;;;;;;467806;253;1113;-67
2021/01/27 04:30:37;;;;;;;;;;;20.90;26.70;;;;;;467854;253;1268;-67
2021/01/27 04:32:38;;;;;;;;;;;20.90;26.60;;;;;;467814;253;981;-68
2021/01/27 04:34:39;;;;;;;;;;;20.90;26.60;;;;;;467782;253;2148;-67
2021/01/27 04:36:41;;;;;;;;;;;20.90;26.60;;;;;;467704;254;1192;-67
2021/01/27 04:38:42;;;;;;;;;;;20.90;26.50;;;;;;467767;253;1014;-67
2021/01/27 04:40:44;;;;;;;;;;;20.90;26.50;;;;;;467814;253;1058;-67
2021/01/27 04:42:45;;;;;;;;;;;20.90;26.50;;;;;;467766;253;1148;-67
2021/01/27 04:44:46;;;;;;;;;;;20.90;26.40;;;;;;467757;254;1687;-67
2021/01/27 04:46:47;;;;;;;;;;;20.90;26.40;;;;;;467771;253;1155;-67
2021/01/27 04:48:49;;;;;;;;;;;20.90;26.40;;;;;;467758;253;1358;-68
2021/01/27 04:50:50;;;;;;;;;;;20.90;26.30;;;;;;467782;253;1218;-67
2021/01/27 04:52:51;;;;;;;;;;;20.90;26.30;;;;;;467794;253;1119;-67
2021/01/27 04:54:53;;;;;;;;;;;20.90;26.30;;;;;;467797;253;2152;-67
2021/01/27 04:56:54;;;;;;;;;;;20.90;26.20;;;;;;467822;253;1209;-67
2021/01/27 04:58:55;;;;;;;;;;;20.90;26.20;;;;;;467811;253;1111;-67
2021/01/27 05:00:56;;;;;;;;;;;20.90;26.20;;;;;;467795;253;1242;-67
2021/01/27 05:02:58;;;;;;;;;;;20.90;26.20;;;;;;467791;254;1088;-67
2021/01/27 05:04:59;;;;;;;;;;;20.90;26.10;;;;;;467781;253;1078;-67
2021/01/27 05:07:00;;;;;;;;;;;20.90;26.10;;;;;;467739;254;1048;-67
2021/01/27 05:09:02;;;;;;;;;;;20.90;26.10;;;;;;467787;254;1121;-68
2021/01/27 05:11:03;;;;;;;;;;;20.90;26.10;;;;;;467819;254;1124;-67
2021/01/27 05:13:04;;;;;;;;;;;20.90;26.10;;;;;;467767;254;1223;-67
2021/01/27 05:15:05;;;;;;;;;;;20.90;26.00;;;;;;467879;253;2160;-68
2021/01/27 05:17:07;;;;;;;;;;;20.90;26.00;;;;;;467774;254;1197;-67
2021/01/27 05:19:08;;;;;;;;;;;20.90;26.00;;;;;;467793;253;1075;-67
2021/01/27 05:21:09;;;;;;;;;;;20.80;25.90;;;;;;467773;251;1149;-67
2021/01/27 05:23:10;;;;;;;;;;;20.90;25.90;;;;;;467691;253;1172;-67
2021/01/27 05:25:12;;;;;;;;;;;20.80;25.80;;;;;;467713;253;1121;-67
2021/01/27 05:27:13;;;;;;;;;;;20.80;25.80;;;;;;467656;254;1094;-67
2021/01/27 05:29:14;;;;;;;;;;;20.80;25.80;;;;;;467785;253;1120;-67
2021/01/27 05:31:16;;;;;;;;;;;20.90;25.80;;;;;;467745;251;1206;-67
2021/01/27 05:33:17;;;;;;;;;;;20.80;25.80;;;;;;467696;253;1007;-67
2021/01/27 05:35:18;;;;;;;;;;;20.80;25.70;;;;;;467614;254;2149;-67
2021/01/27 05:37:19;;;;;;;;;;;20.80;25.70;;;;;;467613;253;1262;-67
2021/01/27 05:39:23;;;;;;;;;;;20.80;25.70;;;;;;467654;253;953;-67
2021/01/27 05:41:22;;;;;;;;;;;20.80;25.70;;;;;;467447;255;1482;-67
2021/01/27 05:43:23;;;;;;;;;;;20.80;25.60;;;;;;467535;253;1120;-67
2021/01/27 05:45:24;;;;;;;;;;;20.80;25.60;;;;;;467648;253;1304;-67
2021/01/27 05:47:26;;;;;;;;;;;20.80;25.60;;;;;;467607;253;1220;-67
2021/01/27 05:49:27;;;;;;;;;;;20.80;25.60;;;;;;467541;253;1057;-67
2021/01/27 05:51:28;;;;;;;;;;;20.80;25.50;;;;;;467472;254;1286;-67
2021/01/27 05:53:30;;;;;;;;;;;20.80;25.50;;;;;;467667;253;996;-67
2021/01/27 05:55:31;;;;;;;;;;;20.80;25.50;;;;;;467491;254;2184;-67
2021/01/27 05:57:33;;;;;;;;;;;20.80;25.50;;;;;;467545;253;1085;-68
2021/01/27 05:59:33;;;;;;;;;;;20.70;25.40;;;;;;467648;254;2236;-67
2021/01/27 06:01:35;;;;;;;;;;;20.70;25.40;;;;;;467591;253;1315;-67
2021/01/27 06:03:36;;;;;;;;;;;20.70;25.40;;;;;;467661;253;1154;-67
2021/01/27 06:05:37;;;;;;;;;;;20.70;25.40;;;;;;467632;254;1084;-67
2021/01/27 06:07:38;;;;;;;;;;;20.70;25.40;;;;;;467587;253;978;-67
2021/01/27 06:09:40;;;;;;;;;;;20.70;25.30;;;;;;467471;254;1094;-67
2021/01/27 06:11:42;;;;;;;;;;;20.70;25.30;;;;;;467450;253;1236;-67
2021/01/27 06:13:43;;;;;;;;;;;20.70;25.30;;;;;;467521;253;1049;-67
2021/01/27 06:15:45;;;;;;;;;;;20.70;25.30;;;;;;467541;253;2153;-67
2021/01/27 06:17:46;;;;;;;;;;;20.70;25.30;;;;;;467553;253;1320;-67
2021/01/27 06:19:47;;;;;;;;;;;20.70;25.20;;;;;;467509;253;1093;-68
2021/01/27 06:21:49;;;;;;;;;;;20.70;25.20;;;;;;467277;254;1136;-67
2021/01/27 06:23:50;;;;;;;;;;;20.70;25.20;;;;;;467397;253;1166;-68
2021/01/27 06:25:51;;;;;;;;;;;20.70;25.20;;;;;;467461;253;1144;-67
2021/01/27 06:27:53;;;;;;;;;;;20.70;25.20;;;;;;467358;254;1212;-67
2021/01/27 06:29:54;;;;;;;;;;;20.70;25.20;;;;;;467283;254;1118;-67
2021/01/27 06:31:55;;;;;;;;;;;20.70;25.20;;;;;;467316;253;1219;-67
2021/01/27 06:33:56;;;;;;;;;;;20.70;25.20;;;;;;467424;253;1199;-67
2021/01/27 06:35:58;;;;;;;;;;;20.70;25.20;;;;;;467437;253;2209;-67
2021/01/27 06:37:59;;;;;;;;;;;20.70;25.10;;;;;;467416;251;1246;-67
2021/01/27 06:40:00;;;;;;;;;;;20.70;25.10;;;;;;467305;253;1041;-67
2021/01/27 06:42:02;;;;;;;;;;;20.70;25.10;;;;;;467340;253;1054;-67
2021/01/27 06:44:03;;;;;;;;;;;20.70;25.10;;;;;;467485;254;1143;-67
2021/01/27 06:46:04;;;;;;;;;;;20.70;25.20;;;;;;467521;253;1242;-68
2021/01/27 06:48:06;;;;;;;;;;;20.70;25.10;;;;;;467397;252;1331;-68
2021/01/27 06:50:07;;;;;;;;;;;20.70;25.10;;;;;;467477;253;1092;-67
2021/01/27 06:52:08;;;;;;;;;;;20.70;25.10;;;;;;467439;253;1087;-67
2021/01/27 06:54:09;;;;;;;;;;;20.70;25.10;;;;;;467473;253;1102;-67
2021/01/27 06:56:11;;;;;;;;;;;20.70;25.10;;;;;;467407;253;2192;-67
2021/01/27 06:58:12;;;;;;;;;;;20.70;25.10;;;;;;467255;253;1189;-67
2021/01/27 07:00:13;;;;;;;;;;;20.60;25.10;;;;;;467371;253;1169;-67
2021/01/27 07:02:15;;;;;;;;;;;20.70;25.10;;;;;;467395;253;1320;-67
2021/01/27 07:04:16;;;;;;;;;;;20.70;25.10;;;;;;467189;254;1164;-67
2021/01/27 07:06:17;;;;;;;;;;;20.60;25.10;;;;;;467323;253;1069;-67
2021/01/27 07:08:18;;;;;;;;;;;20.70;25.10;;;;;;467248;254;1170;-68
2021/01/27 07:10:20;;;;;;;;;;;20.70;25.10;;;;;;467362;254;1163;-67
2021/01/27 07:12:21;;;;;;;;;;;20.70;25.00;;;;;;467366;254;1313;-68
2021/01/27 07:14:22;;;;;;;;;;;20.70;25.10;;;;;;467217;253;1186;-67
2021/01/27 07:16:24;;;;;;;;;;;20.70;25.10;;;;;;467177;253;2425;-67
2021/01/27 07:18:25;;;;;;;;;;;20.70;25.00;;;;;;467325;254;1144;-67
2021/01/27 07:20:26;;;;;;;;;;;20.70;25.00;;;;;;467306;253;1228;-67
2021/01/27 07:22:27;;;;;;;;;;;20.70;25.00;;;;;;467298;253;1043;-67
2021/01/27 07:24:29;;;;;;;;;;;20.70;25.00;;;;;;467126;253;1096;-67
2021/01/27 07:26:30;;;;;;;;;;;20.70;25.40;;;;;;467144;253;1273;-67
2021/01/27 07:28:31;;;;;;;;;;;20.70;26.50;;;;;;467326;253;994;-67
2021/01/27 07:30:33;;;;;;;;;;;20.70;27.70;;;;;;467339;253;1049;-67
2021/01/27 07:32:34;;;;;;;;;;;20.70;28.40;;;;;;467433;254;1259;-67
2021/01/27 07:34:35;;;;;;;;;;;20.70;28.90;;;;;;467380;253;1133;-67
2021/01/27 07:36:36;;;;;;;;;;;20.70;29.90;;;;;;467268;252;2149;-67
2021/01/27 07:38:38;;;;;;;;;;;20.70;30.90;;;;;;467161;253;1043;-67
2021/01/27 07:40:39;;;;;;;;;;;20.80;32.60;;;;;;466985;253;1087;-67
2021/01/27 07:42:40;;;;;;;;;;;20.80;33.30;;;;;;467050;253;1212;-67
2021/01/27 07:44:43;;;;;;;;;;;20.80;34.10;;;;;;467193;253;1204;-67
2021/01/27 07:46:43;;;;;;;;;;;20.80;35.00;;;;;;467127;255;2259;-67
2021/01/27 07:48:45;;;;;;;;;;;20.80;35.80;;;;;;467152;254;1100;-67
2021/01/27 07:50:46;;;;;;;;;;;20.80;36.80;;;;;;467216;253;1131;-67
2021/01/27 07:52:47;;;;;;;;;;;20.80;37.60;;;;;;466970;254;1046;-67
2021/01/27 07:54:48;;;;;;;;;;;20.90;37.70;;;;;;467164;253;1314;-67
2021/01/27 07:56:50;;;;;;;;;;;20.80;38.40;;;;;;467219;253;2213;-67
2021/01/27 07:58:51;;;;;;;;;;;20.80;39.00;;;;;;467140;253;1068;-67
2021/01/27 08:00:52;;;;;;;;;;;20.90;40.00;;;;;;467059;253;1071;-67
2021/01/27 08:02:53;;;;;;;;;;;20.80;40.40;;;;;;467058;254;1197;-67
2021/01/27 08:04:55;;;;;;;;;;;20.80;40.40;;;;;;467091;252;1235;-67
2021/01/27 08:06:57;;;;;;;;;;;20.80;40.80;;;;;;467133;254;1161;-67
2021/01/27 08:08:58;;;;;;;;;;;20.80;41.00;;;;;;467173;255;1109;-67
2021/01/27 08:10:59;;;;;;;;;;;20.90;41.00;;;;;;467109;255;1122;-68
2021/01/27 08:13:01;;;;;;;;;;;20.90;40.60;;;;;;467099;253;1081;-67
2021/01/27 08:15:02;;;;;;;;;;;20.80;40.20;;;;;;467052;253;1049;-67
2021/01/27 08:17:04;;;;;;;;;;;20.90;39.70;;;;;;467102;253;2204;-67
2021/01/27 08:19:05;;;;;;;;;;;20.80;39.30;;;;;;467038;255;1081;-67
2021/01/27 08:21:06;;;;;;;;;;;20.90;39.10;;;;;;467053;253;1253;-67
2021/01/27 08:23:07;;;;;;;;;;;20.90;38.90;;;;;;467056;253;1244;-67
2021/01/27 08:25:10;;;;;;;;;;;20.90;38.70;;;;;;466850;253;1226;-67
2021/01/27 08:27:10;;;;;;;;;;;20.90;38.60;;;;;;466881;255;2309;-68
2021/01/27 08:29:11;;;;;;;;;;;20.90;38.40;;;;;;467097;254;1179;-67
2021/01/27 08:31:13;;;;;;;;;;;20.90;38.20;;;;;;467079;251;1194;-67
2021/01/27 08:33:14;;;;;;;;;;;20.90;38.10;;;;;;467066;254;1205;-67
2021/01/27 08:35:15;;;;;;;;;;;20.90;37.90;;;;;;466838;251;1130;-67
2021/01/27 08:37:17;;;;;;;;;;;20.90;37.80;;;;;;466882;254;2188;-68
2021/01/27 08:39:18;;;;;;;;;;;20.90;37.80;;;;;;466894;253;1116;-67
2021/01/27 08:41:19;;;;;;;;;;;20.90;37.50;;;;;;466938;253;1556;-67
2021/01/27 08:43:21;;;;;;;;;;;20.90;37.40;;;;;;466983;253;1111;-67
2021/01/27 08:45:22;;;;;;;;;;;20.90;37.50;;;;;;466963;254;1369;-67
2021/01/27 08:47:23;;;;;;;;;;;20.90;37.50;;;;;;467113;254;1841;-67
2021/01/27 08:49:24;;;;;;;;;;;20.90;37.60;;;;;;467003;253;1081;-67
2021/01/27 08:51:26;;;;;;;;;;;21.00;37.50;;;;;;466972;253;1078;-67
2021/01/27 08:53:27;;;;;;;;;;;21.00;37.50;;;;;;467072;253;1080;-67
2021/01/27 08:55:28;;;;;;;;;;;21.00;37.50;;;;;;467092;253;1038;-68
2021/01/27 08:57:30;;;;;;;;;;;21.00;37.60;;;;;;466890;253;2157;-67
2021/01/27 08:59:31;;;;;;;;;;;21.00;37.60;;;;;;467060;254;1070;-67
2021/01/27 09:01:33;;;;;;;;;;;21.00;37.60;;;;;;467130;254;1214;-67
2021/01/27 09:03:33;;;;;;;;;;;21.00;37.70;;;;;;466988;255;2205;-67
2021/01/27 09:05:35;;;;;;;;;;;21.00;37.40;;;;;;467070;254;1066;-67
2021/01/27 09:07:36;;;;;;;;;;;21.00;37.60;;;;;;467158;253;1299;-67
2021/01/27 09:09:39;;;;;;;;;;;21.00;37.60;;;;;;467019;253;1211;-68
2021/01/27 09:11:40;;;;;;;;;;;21.10;37.70;;;;;;467043;255;2094;-68
2021/01/27 09:13:41;;;;;;;;;;;21.10;37.70;;;;;;467215;254;1296;-68
2021/01/27 09:15:42;;;;;;;;;;;21.10;37.70;;;;;;467151;254;1195;-67
2021/01/27 09:17:43;;;;;;;;;;;21.10;37.80;;;;;;467213;254;2145;-67
2021/01/27 09:19:45;;;;;;;;;;;21.10;37.80;;;;;;467038;254;1183;-67
2021/01/27 09:21:46;;;;;;;;;;;21.10;37.80;;;;;;466971;253;1259;-68
2021/01/27 09:23:47;;;;;;;;;;;21.10;37.80;;;;;;467166;253;1025;-67
2021/01/27 09:25:49;;;;;;;;;;;21.10;37.80;;;;;;467209;252;1111;-68
2021/01/27 09:27:50;;;;;;;;;;;21.10;37.70;;;;;;467268;253;1159;-68
2021/01/27 09:29:51;;;;;;;;;;;21.10;37.60;;;;;;467159;254;1261;-67
2021/01/27 09:31:52;;;;;;;;;;;21.10;37.80;;;;;;467183;253;1042;-67
2021/01/27 09:33:54;;;;;;;;;;;21.10;37.90;;;;;;467082;253;1222;-67
2021/01/27 09:35:55;;;;;;;;;;;21.10;38.00;;;;;;467031;253;997;-67
2021/01/27 09:37:56;;;;;;;;;;;21.20;38.00;;;;;;467045;253;2196;-67
2021/01/27 09:39:57;;;;;;;;;;;21.10;38.00;;;;;;467143;253;1081;-67
2021/01/27 09:41:59;;;;;;;;;;;21.10;38.00;;;;;;467090;253;1086;-67
2021/01/27 09:44:00;;;;;;;;;;;21.10;38.00;;;;;;467025;253;1108;-67
2021/01/27 09:46:01;;;;;;;;;;;21.10;38.00;;;;;;466982;253;1151;-67
2021/01/27 09:48:04;;;;;;;;;;;21.10;38.00;;;;;;467007;253;1208;-67
2021/01/27 09:50:04;;;;;;;;;;;21.10;37.90;;;;;;467180;253;2177;-67
2021/01/27 09:52:06;;;;;;;;;;;21.10;37.80;;;;;;467144;253;1184;-69
2021/01/27 09:54:07;;;;;;;;;;;21.10;38.00;;;;;;466942;253;1106;-68
2021/01/27 09:56:10;;;;;;;;;;;21.10;38.10;;;;;;466843;254;1093;-67
2021/01/27 09:58:09;;;;;;;;;;;21.20;38.10;;;;;;466907;255;2184;-68
2021/01/27 10:00:11;;;;;;;;;;;21.20;38.20;;;;;;466953;253;1113;-67
2021/01/27 10:02:12;;;;;;;;;;;21.20;38.10;;;;;;467000;254;1231;-67
2021/01/27 10:04:13;;;;;;;;;;;21.20;38.10;;;;;;466895;253;1229;-67
2021/01/27 10:06:15;;;;;;;;;;;21.20;38.10;;;;;;466898;253;1103;-67
2021/01/27 10:08:16;;;;;;;;;;;21.20;38.10;;;;;;466963;254;1173;-67
2021/01/27 10:10:18;;;;;;;;;;;21.30;38.10;;;;;;467033;254;1071;-67
2021/01/27 10:12:18;;;;;;;;;;;21.30;38.00;;;;;;467051;254;2311;-67
2021/01/27 10:14:20;;;;;;;;;;;21.30;37.90;;;;;;466973;253;1150;-67
2021/01/27 10:16:21;;;;;;;;;;;21.30;37.90;;;;;;466945;253;1140;-67
2021/01/27 10:18:22;;;;;;;;;;;21.30;38.00;;;;;;467048;254;2192;-67
2021/01/27 10:20:23;;;;;;;;;;;21.30;38.00;;;;;;467242;253;1126;-68
2021/01/27 10:22:25;;;;;;;;;;;21.30;38.00;;;;;;466940;253;1132;-68
2021/01/27 10:24:26;;;;;;;;;;;21.30;38.00;;;;;;467059;253;1304;-68
2021/01/27 10:26:27;;;;;;;;;;;21.40;38.00;;;;;;467022;253;1083;-67
2021/01/27 10:28:29;;;;;;;;;;;21.30;38.00;;;;;;466921;253;1310;-68
2021/01/27 10:30:30;;;;;;;;;;;21.40;38.00;;;;;;466966;251;1320;-67
2021/01/27 10:32:31;;;;;;;;;;;21.30;37.90;;;;;;467030;253;2285;-67
2021/01/27 10:34:32;;;;;;;;;;;21.40;38.00;;;;;;467046;253;1214;-67
2021/01/27 10:36:34;;;;;;;;;;;21.40;37.90;;;;;;467149;253;2191;-67
2021/01/27 10:38:35;;;;;;;;;;;21.40;37.70;;;;;;467170;253;1170;-68
2021/01/27 10:40:36;;;;;;;;;;;21.40;37.70;;;;;;467055;253;1230;-67
2021/01/27 10:42:38;;;;;;;;;;;21.40;37.90;;;;;;466999;254;1608;-67
2021/01/27 10:44:39;;;;;;;;;;;21.40;37.90;;;;;;467175;253;1229;-68
2021/01/27 10:46:40;;;;;;;;;;;21.40;37.90;;;;;;467160;254;1260;-68
2021/01/27 10:48:42;;;;;;;;;;;21.40;37.90;;;;;;467230;252;1183;-67
2021/01/27 10:50:44;;;;;;;;;;;21.40;37.90;;;;;;467064;253;1367;-67
2021/01/27 10:52:45;;;;;;;;;;;21.40;37.90;;;;;;466961;254;1209;-67
2021/01/27 10:54:47;;;;;;;;;;;21.40;37.80;;;;;;466730;254;1364;-67
2021/01/27 10:56:48;;;;;;;;;;;21.40;37.80;;;;;;466799;253;2221;-68
2021/01/27 10:58:49;;;;;;;;;;;21.50;37.80;;;;;;466900;254;1211;-67
2021/01/27 11:00:51;;;;;;;;;;;21.40;37.70;;;;;;467009;253;1138;-67
2021/01/27 11:02:52;;;;;;;;;;;21.40;37.70;;;;;;466974;254;1310;-68
2021/01/27 11:04:53;;;;;;;;;;;21.40;37.60;;;;;;467029;254;1212;-67
2021/01/27 11:06:55;;;;;;;;;;;21.40;37.50;;;;;;467061;254;1048;-67
2021/01/27 11:08:56;;;;;;;;;;;21.50;37.70;;;;;;466973;254;1292;-67
2021/01/27 11:10:57;;;;;;;;;;;21.40;37.70;;;;;;467022;251;1237;-67
2021/01/27 11:12:58;;;;;;;;;;;21.40;37.70;;;;;;466974;254;1175;-67
2021/01/27 11:15:00;;;;;;;;;;;21.40;37.70;;;;;;466882;251;1577;-68
2021/01/27 11:17:01;;;;;;;;;;;21.40;37.70;;;;;;467004;254;2197;-67
2021/01/27 11:19:02;;;;;;;;;;;21.40;37.70;;;;;;466958;254;1108;-67
2021/01/27 11:21:04;;;;;;;;;;;21.50;37.60;;;;;;467116;253;1158;-67
2021/01/27 11:23:05;;;;;;;;;;;21.50;37.60;;;;;;467140;253;1073;-67
2021/01/27 11:25:06;;;;;;;;;;;21.50;37.50;;;;;;466894;253;1320;-67
2021/01/27 11:27:07;;;;;;;;;;;21.50;37.60;;;;;;467081;253;1166;-67
2021/01/27 11:29:09;;;;;;;;;;;21.50;37.60;;;;;;466907;253;1227;-68
2021/01/27 11:31:10;;;;;;;;;;;21.50;37.40;;;;;;466808;252;2251;-67
2021/01/27 11:33:11;;;;;;;;;;;21.50;37.50;;;;;;466996;253;1089;-67
2021/01/27 11:35:13;;;;;;;;;;;21.50;37.50;;;;;;467127;253;1197;-67
2021/01/27 11:37:14;;;;;;;;;;;21.50;37.60;;;;;;467185;253;2145;-67
2021/01/27 11:39:15;;;;;;;;;;;21.50;37.60;;;;;;467167;253;1111;-67
2021/01/27 11:41:16;;;;;;;;;;;21.50;37.50;;;;;;467042;253;1053;-67
2021/01/27 11:43:18;;;;;;;;;;;21.60;37.50;;;;;;467054;253;1065;-67
2021/01/27 11:45:19;;;;;;;;;;;21.50;37.50;;;;;;467139;253;1154;-68
2021/01/27 11:47:20;;;;;;;;;;;21.50;37.60;;;;;;467129;253;1038;-67
2021/01/27 11:49:21;;;;;;;;;;;21.50;37.60;;;;;;467138;253;1123;-67
2021/01/27 11:51:23;;;;;;;;;;;21.50;37.50;;;;;;467102;253;1136;-67
2021/01/27 11:53:24;;;;;;;;;;;21.50;37.40;;;;;;467176;254;1038;-67
2021/01/27 11:55:25;;;;;;;;;;;21.50;37.30;;;;;;467132;254;1172;-67
2021/01/27 11:57:27;;;;;;;;;;;21.50;37.50;;;;;;467210;253;2208;-68